McAlister, NM

6:29 PM MDT on September 02, 2014 (GMT -0600)
Cannon Air Force Base | Change Station
CLOSE
Current Station
Airport
Location: Clovis Cannon AFB,
Elevation: 4295 ft
Nearby Weather Stations

Elev 4295 ft 34.38 °N, 103.32 °W | Updated 31 minutes ago

Clear
Clear
94 °F
Feels Like 94 °F
N
5
Wind Variable Wind from East

Today
High -- | Low -- °F
--% Chance of Precip.
Yesterday
High -- | Low -- °F
Precip. -- in
6:28 AM 7:19 PM
First Quarter, 56% visible
Pressure 29.76 in
Visibility 10.0 miles
Clouds Clear
Dew Point 52 °F
Humidity 24%
Rainfall 0.00 in
Snow Depth Not available.
UV 1 out of 12
Pollen 9.80 out of 12
Air Quality Not available.
Flu Activity Not available.
METAR KCVS 022358Z AUTO 10004KT 10SM CLR 34/11 A2996 RMK AO2 SLP078 T03440111 10348 20296 57019 $

More Conditions Fewer Conditions

Pressure 29.76 in
Visibility 10.0 miles
Clouds Clear
Dew Point 52 °F
Humidity 24%
Rainfall 0.00 in
Snow Depth Not available.
UV 1 out of 12
Pollen 9.80 out of 12
Air Quality Not available.
Flu Activity Not available.
METAR KCVS 022358Z AUTO 10004KT 10SM CLR 34/11 A2996 RMK AO2 SLP078 T03440111 10348 20296 57019 $

More Conditions Fewer Conditions

10-Day Weather Forecast

Almanac

Astronomy

Sep. 02, 2014 Rise Set
Actual Time 6:28 AM MDT 7:19 PM MDT
Civil Twilight 6:02 AM MDT 7:45 PM MDT
Nautical Twilight 5:32 AM MDT 8:15 PM MDT
Astronomical Twilight 5:00 AM MDT 8:46 PM MDT
Moon 1:57 PM MDT (9/2) No Moon Set
Length of Visible Light 13h 42m
Length of Day
12h 51m
Tomorrow will be 2m 5s shorter.
First Quarter, 56% of the Moon is Illuminated
Today
First Quarter
Sep 8
Full
Sep 15
Last Quarter
Sep 24
New
Oct 1
First Quarter

Today's Extremes

State Highs State Lows

Community

WunderPhotos

Upload Photos

1,749,816 photos uploaded!

Nearby

Snow Depth

Station Depth Elevation
Wesner Springs 1 in 11120 ft
Santa Fe 0 in 11445 ft
Tolby 0 in 10180 ft
Sierra Blanca 1 in 10280 ft
Quemazon 0 in 9500 ft

Earthquake Activity

City Distance Mag. Time & Date
No recent earthquake activity has been reported nearby.
Minimum magnitude displayed is 2.5.

Coastal Water Temperatures

Place Temperature
No Stations Reporting

Nearby Weather Stations